sensor_id;sensor_type;location;lat;lon;timestamp;P1;durP1;ratioP1;P2;durP2;ratioP2
74957;SDS011;63741;42.624;26.276;2023-09-08T00:01:12;19.70;;;11.75;;
74957;SDS011;63741;42.624;26.276;2023-09-08T00:03:39;19.08;;;13.57;;
74957;SDS011;63741;42.624;26.276;2023-09-08T00:06:06;19.90;;;13.48;;
74957;SDS011;63741;42.624;26.276;2023-09-08T00:08:33;18.60;;;13.52;;
74957;SDS011;63741;42.624;26.276;2023-09-08T00:11:00;28.52;;;21.63;;
74957;SDS011;63741;42.624;26.276;2023-09-08T00:13:27;40.42;;;24.08;;
74957;SDS011;63741;42.624;26.276;2023-09-08T00:15:54;40.88;;;28.52;;
74957;SDS011;63741;42.624;26.276;2023-09-08T00:18:21;47.13;;;30.88;;
74957;SDS011;63741;42.624;26.276;2023-09-08T00:20:49;47.30;;;34.72;;
74957;SDS011;63741;42.624;26.276;2023-09-08T00:23:16;51.97;;;36.00;;
74957;SDS011;63741;42.624;26.276;2023-09-08T00:25:43;41.45;;;29.92;;
74957;SDS011;63741;42.624;26.276;2023-09-08T00:28:10;39.72;;;26.45;;
74957;SDS011;63741;42.624;26.276;2023-09-08T00:30:37;37.83;;;27.65;;
74957;SDS011;63741;42.624;26.276;2023-09-08T00:33:04;44.08;;;29.05;;
74957;SDS011;63741;42.624;26.276;2023-09-08T00:35:35;37.33;;;26.00;;
74957;SDS011;63741;42.624;26.276;2023-09-08T00:38:02;32.95;;;22.95;;
74957;SDS011;63741;42.624;26.276;2023-09-08T00:40:52;31.08;;;20.00;;
74957;SDS011;63741;42.624;26.276;2023-09-08T00:43:48;24.20;;;17.25;;
74957;SDS011;63741;42.624;26.276;2023-09-08T00:46:16;22.88;;;15.93;;
74957;SDS011;63741;42.624;26.276;2023-09-08T00:48:43;17.17;;;12.00;;
74957;SDS011;63741;42.624;26.276;2023-09-08T00:51:11;13.27;;;9.60;;
74957;SDS011;63741;42.624;26.276;2023-09-08T00:53:38;12.23;;;7.85;;
74957;SDS011;63741;42.624;26.276;2023-09-08T00:56:06;11.68;;;5.97;;
74957;SDS011;63741;42.624;26.276;2023-09-08T00:58:34;5.90;;;4.10;;
74957;SDS011;63741;42.624;26.276;2023-09-08T01:01:01;6.68;;;4.32;;
74957;SDS011;63741;42.624;26.276;2023-09-08T01:03:28;7.18;;;3.35;;
74957;SDS011;63741;42.624;26.276;2023-09-08T01:05:55;8.25;;;3.53;;
74957;SDS011;63741;42.624;26.276;2023-09-08T01:08:23;8.07;;;3.40;;
74957;SDS011;63741;42.624;26.276;2023-09-08T01:10:52;7.47;;;4.90;;
74957;SDS011;63741;42.624;26.276;2023-09-08T01:13:20;9.40;;;5.03;;
74957;SDS011;63741;42.624;26.276;2023-09-08T01:15:48;11.25;;;6.93;;
74957;SDS011;63741;42.624;26.276;2023-09-08T01:18:15;7.85;;;4.40;;
74957;SDS011;63741;42.624;26.276;2023-09-08T01:26:40;6.53;;;3.40;;
74957;SDS011;63741;42.624;26.276;2023-09-08T01:29:11;4.93;;;3.00;;
74957;SDS011;63741;42.624;26.276;2023-09-08T01:31:41;6.35;;;3.40;;
74957;SDS011;63741;42.624;26.276;2023-09-08T01:34:08;7.03;;;2.75;;
74957;SDS011;63741;42.624;26.276;2023-09-08T01:36:36;7.28;;;3.20;;
74957;SDS011;63741;42.624;26.276;2023-09-08T01:39:03;5.78;;;3.28;;
74957;SDS011;63741;42.624;26.276;2023-09-08T01:41:31;5.97;;;3.25;;
74957;SDS011;63741;42.624;26.276;2023-09-08T01:43:59;4.00;;;3.00;;
74957;SDS011;63741;42.624;26.276;2023-09-08T01:46:26;4.90;;;2.47;;
74957;SDS011;63741;42.624;26.276;2023-09-08T01:48:53;4.15;;;2.83;;
74957;SDS011;63741;42.624;26.276;2023-09-08T01:51:20;5.00;;;2.72;;
74957;SDS011;63741;42.624;26.276;2023-09-08T01:53:47;4.93;;;3.10;;
74957;SDS011;63741;42.624;26.276;2023-09-08T01:56:14;7.65;;;3.20;;
74957;SDS011;63741;42.624;26.276;2023-09-08T02:01:40;5.45;;;2.67;;
74957;SDS011;63741;42.624;26.276;2023-09-08T02:04:07;6.15;;;2.83;;
74957;SDS011;63741;42.624;26.276;2023-09-08T02:06:34;6.63;;;3.25;;
74957;SDS011;63741;42.624;26.276;2023-09-08T02:09:01;5.68;;;2.80;;
74957;SDS011;63741;42.624;26.276;2023-09-08T02:11:28;10.77;;;3.15;;
74957;SDS011;63741;42.624;26.276;2023-09-08T02:13:55;10.73;;;4.10;;
74957;SDS011;63741;42.624;26.276;2023-09-08T02:16:24;10.50;;;3.40;;
74957;SDS011;63741;42.624;26.276;2023-09-08T02:18:51;9.10;;;3.67;;
74957;SDS011;63741;42.624;26.276;2023-09-08T02:21:18;7.38;;;3.22;;
74957;SDS011;63741;42.624;26.276;2023-09-08T02:23:45;7.72;;;3.25;;
74957;SDS011;63741;42.624;26.276;2023-09-08T02:26:12;11.65;;;3.20;;
74957;SDS011;63741;42.624;26.276;2023-09-08T02:28:40;7.95;;;3.22;;
74957;SDS011;63741;42.624;26.276;2023-09-08T02:31:07;7.80;;;3.17;;
74957;SDS011;63741;42.624;26.276;2023-09-08T02:33:34;7.47;;;3.47;;
74957;SDS011;63741;42.624;26.276;2023-09-08T02:36:04;9.38;;;3.50;;
74957;SDS011;63741;42.624;26.276;2023-09-08T02:38:36;8.02;;;3.70;;
74957;SDS011;63741;42.624;26.276;2023-09-08T02:41:04;9.30;;;3.58;;
74957;SDS011;63741;42.624;26.276;2023-09-08T02:43:31;9.50;;;3.47;;
74957;SDS011;63741;42.624;26.276;2023-09-08T02:45:58;10.10;;;3.95;;
74957;SDS011;63741;42.624;26.276;2023-09-08T02:48:26;5.35;;;3.58;;
74957;SDS011;63741;42.624;26.276;2023-09-08T02:50:53;8.65;;;3.63;;
74957;SDS011;63741;42.624;26.276;2023-09-08T02:53:20;6.95;;;3.63;;
74957;SDS011;63741;42.624;26.276;2023-09-08T02:55:49;10.43;;;3.75;;
74957;SDS011;63741;42.624;26.276;2023-09-08T02:58:16;14.98;;;4.15;;
74957;SDS011;63741;42.624;26.276;2023-09-08T03:00:43;16.15;;;4.15;;
74957;SDS011;63741;42.624;26.276;2023-09-08T03:03:10;292.10;;;15.82;;
74957;SDS011;63741;42.624;26.276;2023-09-08T03:05:37;49.42;;;5.75;;
74957;SDS011;63741;42.624;26.276;2023-09-08T03:08:04;44.25;;;5.10;;
74957;SDS011;63741;42.624;26.276;2023-09-08T03:10:33;56.30;;;6.35;;
74957;SDS011;63741;42.624;26.276;2023-09-08T03:13:03;50.08;;;4.93;;
74957;SDS011;63741;42.624;26.276;2023-09-08T03:15:34;25.63;;;4.22;;
74957;SDS011;63741;42.624;26.276;2023-09-08T03:18:01;26.40;;;3.67;;
74957;SDS011;63741;42.624;26.276;2023-09-08T03:20:28;20.88;;;3.42;;
74957;SDS011;63741;42.624;26.276;2023-09-08T03:22:55;14.60;;;3.08;;
74957;SDS011;63741;42.624;26.276;2023-09-08T03:25:22;22.30;;;3.30;;
74957;SDS011;63741;42.624;26.276;2023-09-08T03:27:49;12.57;;;2.78;;
74957;SDS011;63741;42.624;26.276;2023-09-08T03:30:16;8.73;;;2.35;;
74957;SDS011;63741;42.624;26.276;2023-09-08T03:32:43;4.53;;;2.63;;
74957;SDS011;63741;42.624;26.276;2023-09-08T03:35:10;4.38;;;2.20;;
74957;SDS011;63741;42.624;26.276;2023-09-08T03:37:38;4.53;;;2.50;;
74957;SDS011;63741;42.624;26.276;2023-09-08T03:40:05;5.95;;;2.22;;
74957;SDS011;63741;42.624;26.276;2023-09-08T03:42:33;17.35;;;3.20;;
74957;SDS011;63741;42.624;26.276;2023-09-08T03:45:01;7.85;;;2.40;;
74957;SDS011;63741;42.624;26.276;2023-09-08T03:47:29;9.25;;;2.65;;
74957;SDS011;63741;42.624;26.276;2023-09-08T03:49:56;8.32;;;2.67;;
74957;SDS011;63741;42.624;26.276;2023-09-08T03:52:23;4.95;;;2.28;;
74957;SDS011;63741;42.624;26.276;2023-09-08T03:54:50;8.98;;;2.45;;
74957;SDS011;63741;42.624;26.276;2023-09-08T03:57:17;8.13;;;2.80;;
74957;SDS011;63741;42.624;26.276;2023-09-08T03:59:44;10.05;;;2.75;;
74957;SDS011;63741;42.624;26.276;2023-09-08T04:02:11;5.15;;;2.25;;
74957;SDS011;63741;42.624;26.276;2023-09-08T04:04:38;7.35;;;2.53;;
74957;SDS011;63741;42.624;26.276;2023-09-08T04:07:07;6.82;;;2.30;;
74957;SDS011;63741;42.624;26.276;2023-09-08T04:09:34;5.30;;;1.98;;
74957;SDS011;63741;42.624;26.276;2023-09-08T04:12:01;5.53;;;2.13;;
74957;SDS011;63741;42.624;26.276;2023-09-08T04:14:29;6.90;;;2.20;;
74957;SDS011;63741;42.624;26.276;2023-09-08T04:16:57;5.32;;;2.17;;
74957;SDS011;63741;42.624;26.276;2023-09-08T04:19:24;6.47;;;1.90;;
74957;SDS011;63741;42.624;26.276;2023-09-08T04:21:51;7.53;;;2.83;;
74957;SDS011;63741;42.624;26.276;2023-09-08T04:24:18;11.45;;;2.40;;
74957;SDS011;63741;42.624;26.276;2023-09-08T04:26:45;6.95;;;2.50;;
74957;SDS011;63741;42.624;26.276;2023-09-08T04:29:12;5.90;;;3.13;;
74957;SDS011;63741;42.624;26.276;2023-09-08T04:31:39;5.90;;;3.65;;
74957;SDS011;63741;42.624;26.276;2023-09-08T04:34:06;6.53;;;3.15;;
74957;SDS011;63741;42.624;26.276;2023-09-08T04:36:34;5.93;;;3.08;;
74957;SDS011;63741;42.624;26.276;2023-09-08T04:39:01;6.50;;;2.85;;
74957;SDS011;63741;42.624;26.276;2023-09-08T04:41:28;7.38;;;2.72;;
74957;SDS011;63741;42.624;26.276;2023-09-08T04:43:55;7.07;;;2.90;;
74957;SDS011;63741;42.624;26.276;2023-09-08T04:46:24;6.10;;;2.80;;
74957;SDS011;63741;42.624;26.276;2023-09-08T04:48:51;10.75;;;2.60;;
74957;SDS011;63741;42.624;26.276;2023-09-08T04:51:20;11.15;;;2.97;;
74957;SDS011;63741;42.624;26.276;2023-09-08T04:53:48;18.55;;;4.38;;
74957;SDS011;63741;42.624;26.276;2023-09-08T04:56:15;17.23;;;6.60;;
74957;SDS011;63741;42.624;26.276;2023-09-08T04:58:43;26.50;;;8.30;;
74957;SDS011;63741;42.624;26.276;2023-09-08T05:01:11;17.77;;;4.90;;
74957;SDS011;63741;42.624;26.276;2023-09-08T05:03:38;30.88;;;3.67;;
74957;SDS011;63741;42.624;26.276;2023-09-08T05:06:06;8.45;;;2.60;;
74957;SDS011;63741;42.624;26.276;2023-09-08T05:08:33;7.68;;;2.40;;
74957;SDS011;63741;42.624;26.276;2023-09-08T05:11:01;7.28;;;2.78;;
74957;SDS011;63741;42.624;26.276;2023-09-08T05:13:29;11.55;;;2.67;;
74957;SDS011;63741;42.624;26.276;2023-09-08T05:16:00;11.57;;;2.50;;
74957;SDS011;63741;42.624;26.276;2023-09-08T05:18:41;13.75;;;2.90;;
74957;SDS011;63741;42.624;26.276;2023-09-08T05:21:08;9.65;;;2.30;;
74957;SDS011;63741;42.624;26.276;2023-09-08T05:23:36;9.27;;;2.53;;
74957;SDS011;63741;42.624;26.276;2023-09-08T05:26:03;15.40;;;2.83;;
74957;SDS011;63741;42.624;26.276;2023-09-08T05:28:30;23.70;;;3.17;;
74957;SDS011;63741;42.624;26.276;2023-09-08T05:30:57;9.40;;;2.63;;
74957;SDS011;63741;42.624;26.276;2023-09-08T05:33:24;9.23;;;2.25;;
74957;SDS011;63741;42.624;26.276;2023-09-08T05:35:52;26.13;;;2.92;;
74957;SDS011;63741;42.624;26.276;2023-09-08T05:38:19;6.65;;;2.72;;
74957;SDS011;63741;42.624;26.276;2023-09-08T05:40:46;7.20;;;2.53;;
74957;SDS011;63741;42.624;26.276;2023-09-08T05:43:13;26.27;;;3.15;;
74957;SDS011;63741;42.624;26.276;2023-09-08T05:45:40;12.00;;;2.97;;
74957;SDS011;63741;42.624;26.276;2023-09-08T05:48:07;7.22;;;2.60;;
74957;SDS011;63741;42.624;26.276;2023-09-08T05:50:34;5.30;;;2.15;;
74957;SDS011;63741;42.624;26.276;2023-09-08T05:53:01;5.88;;;2.38;;
74957;SDS011;63741;42.624;26.276;2023-09-08T05:55:28;10.82;;;2.55;;
74957;SDS011;63741;42.624;26.276;2023-09-08T05:57:55;73.30;;;6.10;;
74957;SDS011;63741;42.624;26.276;2023-09-08T06:00:22;8.38;;;2.47;;
74957;SDS011;63741;42.624;26.276;2023-09-08T06:02:51;14.98;;;2.67;;
74957;SDS011;63741;42.624;26.276;2023-09-08T06:05:18;9.77;;;2.53;;
74957;SDS011;63741;42.624;26.276;2023-09-08T06:07:45;7.05;;;2.50;;
74957;SDS011;63741;42.624;26.276;2023-09-08T06:10:32;13.93;;;2.80;;
74957;SDS011;63741;42.624;26.276;2023-09-08T06:12:59;9.05;;;2.40;;
74957;SDS011;63741;42.624;26.276;2023-09-08T06:15:26;7.65;;;2.50;;
74957;SDS011;63741;42.624;26.276;2023-09-08T06:17:53;10.38;;;2.13;;
74957;SDS011;63741;42.624;26.276;2023-09-08T06:20:20;16.05;;;2.92;;
74957;SDS011;63741;42.624;26.276;2023-09-08T06:22:48;7.55;;;2.50;;
74957;SDS011;63741;42.624;26.276;2023-09-08T06:25:15;14.05;;;2.63;;
74957;SDS011;63741;42.624;26.276;2023-09-08T06:27:42;9.10;;;2.60;;
74957;SDS011;63741;42.624;26.276;2023-09-08T06:30:11;29.58;;;3.05;;
74957;SDS011;63741;42.624;26.276;2023-09-08T06:32:40;10.20;;;2.67;;
74957;SDS011;63741;42.624;26.276;2023-09-08T06:35:08;5.47;;;2.30;;
74957;SDS011;63741;42.624;26.276;2023-09-08T06:37:36;7.55;;;2.33;;
74957;SDS011;63741;42.624;26.276;2023-09-08T06:40:05;9.05;;;2.60;;
74957;SDS011;63741;42.624;26.276;2023-09-08T06:42:33;5.93;;;2.30;;
74957;SDS011;63741;42.624;26.276;2023-09-08T06:45:10;11.63;;;2.58;;
74957;SDS011;63741;42.624;26.276;2023-09-08T06:47:37;7.03;;;2.60;;
74957;SDS011;63741;42.624;26.276;2023-09-08T06:50:04;7.70;;;2.70;;
74957;SDS011;63741;42.624;26.276;2023-09-08T06:52:33;14.05;;;2.70;;
74957;SDS011;63741;42.624;26.276;2023-09-08T06:55:00;12.10;;;2.33;;
74957;SDS011;63741;42.624;26.276;2023-09-08T06:57:27;13.85;;;2.65;;
74957;SDS011;63741;42.624;26.276;2023-09-08T06:59:54;7.50;;;2.30;;
74957;SDS011;63741;42.624;26.276;2023-09-08T07:02:21;10.60;;;2.28;;
74957;SDS011;63741;42.624;26.276;2023-09-08T07:04:48;7.90;;;2.72;;
74957;SDS011;63741;42.624;26.276;2023-09-08T07:07:17;7.40;;;2.60;;
74957;SDS011;63741;42.624;26.276;2023-09-08T07:09:56;8.35;;;2.28;;
74957;SDS011;63741;42.624;26.276;2023-09-08T07:12:23;7.03;;;2.30;;
74957;SDS011;63741;42.624;26.276;2023-09-08T07:14:50;17.05;;;2.83;;
74957;SDS011;63741;42.624;26.276;2023-09-08T07:17:17;9.88;;;2.53;;
74957;SDS011;63741;42.624;26.276;2023-09-08T07:19:44;8.63;;;2.55;;
74957;SDS011;63741;42.624;26.276;2023-09-08T07:22:11;10.13;;;2.63;;
74957;SDS011;63741;42.624;26.276;2023-09-08T07:24:38;6.30;;;2.53;;
74957;SDS011;63741;42.624;26.276;2023-09-08T07:27:04;8.38;;;2.92;;
74957;SDS011;63741;42.624;26.276;2023-09-08T07:29:32;11.02;;;3.20;;
74957;SDS011;63741;42.624;26.276;2023-09-08T07:31:59;7.50;;;2.40;;
74957;SDS011;63741;42.624;26.276;2023-09-08T07:34:26;9.38;;;2.55;;
74957;SDS011;63741;42.624;26.276;2023-09-08T07:36:53;9.13;;;2.85;;
74957;SDS011;63741;42.624;26.276;2023-09-08T07:39:21;8.23;;;2.95;;
74957;SDS011;63741;42.624;26.276;2023-09-08T07:41:48;8.95;;;2.75;;
74957;SDS011;63741;42.624;26.276;2023-09-08T07:44:15;7.55;;;2.85;;
74957;SDS011;63741;42.624;26.276;2023-09-08T07:46:43;9.82;;;3.00;;
74957;SDS011;63741;42.624;26.276;2023-09-08T07:49:12;9.05;;;2.97;;
74957;SDS011;63741;42.624;26.276;2023-09-08T07:51:39;7.07;;;2.60;;
74957;SDS011;63741;42.624;26.276;2023-09-08T07:54:06;7.88;;;3.03;;
74957;SDS011;63741;42.624;26.276;2023-09-08T07:56:33;57.30;;;4.70;;
74957;SDS011;63741;42.624;26.276;2023-09-08T07:59:00;13.68;;;2.78;;
74957;SDS011;63741;42.624;26.276;2023-09-08T08:01:27;6.95;;;2.90;;
74957;SDS011;63741;42.624;26.276;2023-09-08T08:03:54;8.38;;;2.80;;
74957;SDS011;63741;42.624;26.276;2023-09-08T08:06:21;6.65;;;2.92;;
74957;SDS011;63741;42.624;26.276;2023-09-08T08:08:48;6.38;;;2.75;;
74957;SDS011;63741;42.624;26.276;2023-09-08T08:11:15;8.52;;;2.90;;
74957;SDS011;63741;42.624;26.276;2023-09-08T08:13:46;8.10;;;2.88;;
74957;SDS011;63741;42.624;26.276;2023-09-08T08:16:13;10.70;;;3.22;;
74957;SDS011;63741;42.624;26.276;2023-09-08T08:18:40;13.48;;;3.10;;
74957;SDS011;63741;42.624;26.276;2023-09-08T08:21:07;11.95;;;3.00;;
74957;SDS011;63741;42.624;26.276;2023-09-08T08:23:34;7.05;;;3.08;;
74957;SDS011;63741;42.624;26.276;2023-09-08T08:26:02;6.45;;;2.95;;
74957;SDS011;63741;42.624;26.276;2023-09-08T08:28:29;9.65;;;3.03;;
74957;SDS011;63741;42.624;26.276;2023-09-08T08:30:56;9.50;;;3.05;;
74957;SDS011;63741;42.624;26.276;2023-09-08T08:33:24;8.57;;;3.20;;
74957;SDS011;63741;42.624;26.276;2023-09-08T08:35:52;15.30;;;2.92;;
74957;SDS011;63741;42.624;26.276;2023-09-08T08:38:20;9.15;;;3.45;;
74957;SDS011;63741;42.624;26.276;2023-09-08T08:40:47;13.90;;;3.78;;
74957;SDS011;63741;42.624;26.276;2023-09-08T08:43:14;15.98;;;3.55;;
74957;SDS011;63741;42.624;26.276;2023-09-08T08:45:41;24.58;;;3.88;;
74957;SDS011;63741;42.624;26.276;2023-09-08T08:48:09;20.13;;;3.42;;
74957;SDS011;63741;42.624;26.276;2023-09-08T08:50:38;10.70;;;3.13;;
74957;SDS011;63741;42.624;26.276;2023-09-08T08:53:08;10.57;;;3.30;;
74957;SDS011;63741;42.624;26.276;2023-09-08T08:55:35;12.75;;;3.15;;
74957;SDS011;63741;42.624;26.276;2023-09-08T08:58:05;18.65;;;3.42;;
74957;SDS011;63741;42.624;26.276;2023-09-08T09:00:33;8.38;;;3.38;;
74957;SDS011;63741;42.624;26.276;2023-09-08T09:03:03;12.35;;;3.50;;
74957;SDS011;63741;42.624;26.276;2023-09-08T09:05:40;26.08;;;4.15;;
74957;SDS011;63741;42.624;26.276;2023-09-08T09:08:14;16.63;;;3.42;;
74957;SDS011;63741;42.624;26.276;2023-09-08T09:10:43;13.68;;;3.25;;
74957;SDS011;63741;42.624;26.276;2023-09-08T09:13:10;13.23;;;4.07;;
74957;SDS011;63741;42.624;26.276;2023-09-08T09:15:37;11.70;;;3.53;;
74957;SDS011;63741;42.624;26.276;2023-09-08T09:18:04;11.10;;;3.60;;
74957;SDS011;63741;42.624;26.276;2023-09-08T09:20:33;10.20;;;3.47;;
74957;SDS011;63741;42.624;26.276;2023-09-08T09:23:01;8.63;;;3.42;;
74957;SDS011;63741;42.624;26.276;2023-09-08T09:25:28;13.40;;;3.72;;
74957;SDS011;63741;42.624;26.276;2023-09-08T09:27:57;9.57;;;3.72;;
74957;SDS011;63741;42.624;26.276;2023-09-08T09:30:26;12.50;;;3.05;;
74957;SDS011;63741;42.624;26.276;2023-09-08T09:32:59;15.45;;;3.53;;
74957;SDS011;63741;42.624;26.276;2023-09-08T09:35:45;25.55;;;3.63;;
74957;SDS011;63741;42.624;26.276;2023-09-08T09:38:14;7.50;;;3.28;;
74957;SDS011;63741;42.624;26.276;2023-09-08T09:40:41;8.90;;;3.13;;
74957;SDS011;63741;42.624;26.276;2023-09-08T09:43:08;13.80;;;3.30;;
74957;SDS011;63741;42.624;26.276;2023-09-08T09:45:38;6.70;;;3.00;;
74957;SDS011;63741;42.624;26.276;2023-09-08T09:48:06;13.48;;;3.50;;
74957;SDS011;63741;42.624;26.276;2023-09-08T09:50:39;10.93;;;3.53;;
74957;SDS011;63741;42.624;26.276;2023-09-08T09:53:13;9.32;;;3.22;;
74957;SDS011;63741;42.624;26.276;2023-09-08T09:55:45;12.73;;;3.38;;
74957;SDS011;63741;42.624;26.276;2023-09-08T09:58:13;9.45;;;3.15;;
74957;SDS011;63741;42.624;26.276;2023-09-08T10:00:41;7.55;;;3.17;;
74957;SDS011;63741;42.624;26.276;2023-09-08T10:03:14;11.15;;;3.47;;
74957;SDS011;63741;42.624;26.276;2023-09-08T10:05:42;23.95;;;3.90;;
74957;SDS011;63741;42.624;26.276;2023-09-08T10:08:09;6.18;;;3.13;;
74957;SDS011;63741;42.624;26.276;2023-09-08T10:10:36;6.85;;;3.13;;
74957;SDS011;63741;42.624;26.276;2023-09-08T10:13:06;18.92;;;3.60;;
74957;SDS011;63741;42.624;26.276;2023-09-08T10:15:34;14.80;;;2.90;;
74957;SDS011;63741;42.624;26.276;2023-09-08T10:18:03;6.35;;;2.90;;
74957;SDS011;63741;42.624;26.276;2023-09-08T10:20:32;12.75;;;2.90;;
74957;SDS011;63741;42.624;26.276;2023-09-08T10:28:16;8.05;;;3.60;;
74957;SDS011;63741;42.624;26.276;2023-09-08T10:30:44;11.00;;;3.13;;
74957;SDS011;63741;42.624;26.276;2023-09-08T10:33:11;22.95;;;3.63;;
74957;SDS011;63741;42.624;26.276;2023-09-08T10:35:39;11.65;;;2.80;;
74957;SDS011;63741;42.624;26.276;2023-09-08T10:38:23;9.00;;;3.10;;
74957;SDS011;63741;42.624;26.276;2023-09-08T10:40:54;8.02;;;3.00;;
74957;SDS011;63741;42.624;26.276;2023-09-08T10:43:43;4.60;;;2.47;;
74957;SDS011;63741;42.624;26.276;2023-09-08T10:46:21;7.78;;;3.10;;
74957;SDS011;63741;42.624;26.276;2023-09-08T10:48:50;7.63;;;3.60;;
74957;SDS011;63741;42.624;26.276;2023-09-08T10:51:20;7.97;;;2.92;;
74957;SDS011;63741;42.624;26.276;2023-09-08T10:53:49;6.55;;;2.70;;
74957;SDS011;63741;42.624;26.276;2023-09-08T10:56:16;14.98;;;3.08;;
74957;SDS011;63741;42.624;26.276;2023-09-08T10:58:47;7.50;;;2.92;;
74957;SDS011;63741;42.624;26.276;2023-09-08T11:01:18;5.70;;;3.08;;
74957;SDS011;63741;42.624;26.276;2023-09-08T11:03:54;5.47;;;2.47;;
74957;SDS011;63741;42.624;26.276;2023-09-08T11:06:21;70.65;;;5.53;;
74957;SDS011;63741;42.624;26.276;2023-09-08T11:08:49;9.43;;;2.60;;
74957;SDS011;63741;42.624;26.276;2023-09-08T11:11:19;19.45;;;3.35;;
74957;SDS011;63741;42.624;26.276;2023-09-08T11:13:47;8.23;;;2.70;;
74957;SDS011;63741;42.624;26.276;2023-09-08T11:16:14;12.75;;;3.00;;
74957;SDS011;63741;42.624;26.276;2023-09-08T11:18:42;9.27;;;3.28;;
74957;SDS011;63741;42.624;26.276;2023-09-08T11:21:10;7.53;;;3.00;;
74957;SDS011;63741;42.624;26.276;2023-09-08T11:23:37;15.73;;;3.15;;
74957;SDS011;63741;42.624;26.276;2023-09-08T11:26:05;6.70;;;3.38;;
74957;SDS011;63741;42.624;26.276;2023-09-08T11:28:33;7.88;;;3.08;;
74957;SDS011;63741;42.624;26.276;2023-09-08T11:31:00;9.43;;;3.10;;
74957;SDS011;63741;42.624;26.276;2023-09-08T11:33:32;15.75;;;3.00;;
74957;SDS011;63741;42.624;26.276;2023-09-08T11:36:00;10.27;;;3.20;;
74957;SDS011;63741;42.624;26.276;2023-09-08T11:38:28;9.63;;;3.22;;
74957;SDS011;63741;42.624;26.276;2023-09-08T11:40:56;5.93;;;3.10;;
74957;SDS011;63741;42.624;26.276;2023-09-08T11:43:25;11.52;;;3.00;;
74957;SDS011;63741;42.624;26.276;2023-09-08T11:45:54;10.35;;;2.90;;
74957;SDS011;63741;42.624;26.276;2023-09-08T11:48:23;8.90;;;3.58;;
74957;SDS011;63741;42.624;26.276;2023-09-08T11:50:54;8.20;;;3.05;;
74957;SDS011;63741;42.624;26.276;2023-09-08T11:53:21;6.07;;;2.83;;
74957;SDS011;63741;42.624;26.276;2023-09-08T11:55:49;9.00;;;3.00;;
74957;SDS011;63741;42.624;26.276;2023-09-08T11:58:17;10.90;;;3.10;;
74957;SDS011;63741;42.624;26.276;2023-09-08T12:00:45;6.97;;;3.08;;
74957;SDS011;63741;42.624;26.276;2023-09-08T12:03:14;9.50;;;3.15;;
74957;SDS011;63741;42.624;26.276;2023-09-08T12:05:51;17.83;;;3.50;;
74957;SDS011;63741;42.624;26.276;2023-09-08T12:08:19;10.95;;;3.05;;
74957;SDS011;63741;42.624;26.276;2023-09-08T12:10:46;8.02;;;3.00;;
74957;SDS011;63741;42.624;26.276;2023-09-08T12:13:15;8.98;;;3.10;;
74957;SDS011;63741;42.624;26.276;2023-09-08T12:15:47;14.35;;;3.25;;
74957;SDS011;63741;42.624;26.276;2023-09-08T12:18:14;13.07;;;3.65;;
74957;SDS011;63741;42.624;26.276;2023-09-08T12:20:42;15.98;;;4.55;;
74957;SDS011;63741;42.624;26.276;2023-09-08T12:23:17;15.07;;;3.45;;
74957;SDS011;63741;42.624;26.276;2023-09-08T12:25:52;19.20;;;4.45;;
74957;SDS011;63741;42.624;26.276;2023-09-08T12:28:20;14.40;;;3.35;;
74957;SDS011;63741;42.624;26.276;2023-09-08T12:30:51;14.20;;;3.25;;
74957;SDS011;63741;42.624;26.276;2023-09-08T12:33:20;14.05;;;3.40;;
74957;SDS011;63741;42.624;26.276;2023-09-08T12:35:47;6.55;;;2.58;;
74957;SDS011;63741;42.624;26.276;2023-09-08T12:38:17;13.73;;;3.20;;
74957;SDS011;63741;42.624;26.276;2023-09-08T12:40:45;9.73;;;2.58;;
74957;SDS011;63741;42.624;26.276;2023-09-08T12:43:11;11.35;;;3.13;;
74957;SDS011;63741;42.624;26.276;2023-09-08T12:45:53;9.90;;;2.90;;
74957;SDS011;63741;42.624;26.276;2023-09-08T12:48:21;14.90;;;3.53;;
74957;SDS011;63741;42.624;26.276;2023-09-08T12:50:49;8.80;;;2.83;;
74957;SDS011;63741;42.624;26.276;2023-09-08T12:53:16;5.25;;;2.53;;
74957;SDS011;63741;42.624;26.276;2023-09-08T12:55:45;13.15;;;2.88;;
74957;SDS011;63741;42.624;26.276;2023-09-08T12:58:13;18.77;;;3.15;;
74957;SDS011;63741;42.624;26.276;2023-09-08T13:00:40;13.27;;;3.00;;
74957;SDS011;63741;42.624;26.276;2023-09-08T13:03:07;14.63;;;3.38;;
74957;SDS011;63741;42.624;26.276;2023-09-08T13:05:34;13.82;;;3.45;;
74957;SDS011;63741;42.624;26.276;2023-09-08T13:08:02;10.60;;;2.85;;
74957;SDS011;63741;42.624;26.276;2023-09-08T13:10:29;11.90;;;3.30;;
74957;SDS011;63741;42.624;26.276;2023-09-08T13:12:56;13.98;;;3.00;;
74957;SDS011;63741;42.624;26.276;2023-09-08T13:15:23;9.50;;;3.25;;
74957;SDS011;63741;42.624;26.276;2023-09-08T13:17:50;15.27;;;3.10;;
74957;SDS011;63741;42.624;26.276;2023-09-08T13:20:18;11.10;;;2.63;;
74957;SDS011;63741;42.624;26.276;2023-09-08T13:22:46;8.65;;;2.95;;
74957;SDS011;63741;42.624;26.276;2023-09-08T13:25:13;14.48;;;2.90;;
74957;SDS011;63741;42.624;26.276;2023-09-08T13:27:40;8.80;;;2.40;;
74957;SDS011;63741;42.624;26.276;2023-09-08T13:30:12;13.40;;;2.83;;
74957;SDS011;63741;42.624;26.276;2023-09-08T13:32:40;12.35;;;2.70;;
74957;SDS011;63741;42.624;26.276;2023-09-08T13:35:09;9.38;;;2.45;;
74957;SDS011;63741;42.624;26.276;2023-09-08T13:37:36;9.75;;;2.58;;
74957;SDS011;63741;42.624;26.276;2023-09-08T13:40:06;9.57;;;2.88;;
74957;SDS011;63741;42.624;26.276;2023-09-08T13:42:35;12.43;;;2.45;;
74957;SDS011;63741;42.624;26.276;2023-09-08T13:45:03;11.95;;;2.35;;
74957;SDS011;63741;42.624;26.276;2023-09-08T13:47:30;10.63;;;2.25;;
74957;SDS011;63741;42.624;26.276;2023-09-08T13:49:59;7.95;;;2.47;;
74957;SDS011;63741;42.624;26.276;2023-09-08T13:52:30;6.53;;;2.38;;
74957;SDS011;63741;42.624;26.276;2023-09-08T13:55:01;9.80;;;2.60;;
74957;SDS011;63741;42.624;26.276;2023-09-08T13:57:32;26.02;;;3.35;;
74957;SDS011;63741;42.624;26.276;2023-09-08T14:00:00;11.95;;;2.60;;
74957;SDS011;63741;42.624;26.276;2023-09-08T14:02:35;9.85;;;2.47;;
74957;SDS011;63741;42.624;26.276;2023-09-08T14:05:09;11.68;;;3.10;;
74957;SDS011;63741;42.624;26.276;2023-09-08T14:07:37;11.73;;;3.13;;
74957;SDS011;63741;42.624;26.276;2023-09-08T14:10:12;4.97;;;2.65;;
74957;SDS011;63741;42.624;26.276;2023-09-08T14:12:55;8.48;;;2.53;;
74957;SDS011;63741;42.624;26.276;2023-09-08T14:15:22;11.25;;;2.35;;
74957;SDS011;63741;42.624;26.276;2023-09-08T14:17:49;12.05;;;2.53;;
74957;SDS011;63741;42.624;26.276;2023-09-08T14:20:16;12.43;;;2.83;;
74957;SDS011;63741;42.624;26.276;2023-09-08T14:22:43;18.30;;;2.70;;
74957;SDS011;63741;42.624;26.276;2023-09-08T14:25:11;16.52;;;2.90;;
74957;SDS011;63741;42.624;26.276;2023-09-08T14:27:38;15.48;;;2.90;;
74957;SDS011;63741;42.624;26.276;2023-09-08T14:30:05;12.23;;;2.53;;
74957;SDS011;63741;42.624;26.276;2023-09-08T14:32:32;9.00;;;2.42;;
74957;SDS011;63741;42.624;26.276;2023-09-08T14:34:59;15.77;;;2.50;;
74957;SDS011;63741;42.624;26.276;2023-09-08T14:37:26;8.18;;;2.70;;
74957;SDS011;63741;42.624;26.276;2023-09-08T14:39:53;12.32;;;2.15;;
74957;SDS011;63741;42.624;26.276;2023-09-08T14:42:20;16.85;;;2.88;;
74957;SDS011;63741;42.624;26.276;2023-09-08T14:44:47;11.75;;;3.00;;
74957;SDS011;63741;42.624;26.276;2023-09-08T14:47:15;7.93;;;2.33;;
74957;SDS011;63741;42.624;26.276;2023-09-08T14:49:42;10.57;;;2.50;;